Time;durP1;ratioP1;P1;durP2;ratioP2;P2;SDS_P1;SDS_P2;PMS_P1;PMS_P2;Temp;Humidity;BMP_temperature;BMP_pressure;BME280_temperature;BME280_humidity;BME280_pressure;Samples;Min_cycle;Max_cycle;Signal;HPM_P1;HPM_P2
2023/11/16 00:00:19;;;;;;;10.90;7.95;;;26.30;99.90;;;;;;5051577;28;20128;-57
2023/11/16 00:02:45;;;;;;;12.02;7.25;;;26.30;99.90;;;;;;5051693;28;20469;-56
2023/11/16 00:05:13;;;;;;;11.02;7.72;;;26.30;99.90;;;;;;5051871;28;20032;-55
2023/11/16 00:07:41;;;;;;;10.13;6.97;;;26.30;99.90;;;;;;5051902;28;20029;-56
2023/11/16 00:10:09;;;;;;;11.35;7.43;;;26.30;99.90;;;;;;5051877;28;20027;-56
2023/11/16 00:12:35;;;;;;;10.48;8.20;;;26.20;99.90;;;;;;5051693;28;20029;-55
2023/11/16 00:15:01;;;;;;;13.32;8.27;;;26.30;99.90;;;;;;5067130;28;20040;-56
2023/11/16 00:17:28;;;;;;;13.32;8.07;;;26.20;99.90;;;;;;5050251;28;20498;-55
2023/11/16 00:19:55;;;;;;;9.10;6.72;;;26.20;99.90;;;;;;5051584;28;20067;-55
2023/11/16 00:22:20;;;;;;;10.85;7.90;;;26.20;99.90;;;;;;5051678;28;20047;-56
2023/11/16 00:24:46;;;;;;;11.57;7.72;;;26.20;99.90;;;;;;5051535;28;20108;-55
2023/11/16 00:27:12;;;;;;;10.73;6.97;;;26.20;99.90;;;;;;5050355;28;20081;-55
2023/11/16 00:29:38;;;;;;;9.65;7.55;;;26.10;99.90;;;;;;5051782;28;20389;-55
2023/11/16 00:32:05;;;;;;;12.02;7.97;;;26.20;99.90;;;;;;5051663;28;20160;-55
2023/11/16 00:34:30;;;;;;;11.02;7.47;;;26.10;99.90;;;;;;5051514;28;20067;-56
2023/11/16 00:36:56;;;;;;;10.65;7.75;;;26.10;99.90;;;;;;5051489;28;20064;-56
2023/11/16 00:39:22;;;;;;;12.00;7.88;;;26.10;99.90;;;;;;5051322;28;20080;-56
2023/11/16 00:41:48;;;;;;;9.45;7.30;;;26.10;99.90;;;;;;5051540;28;20100;-55
2023/11/16 00:44:19;;;;;;;9.50;7.20;;;26.10;99.90;;;;;;5054874;28;20025;-56
2023/11/16 00:46:48;;;;;;;9.27;7.05;;;26.00;99.90;;;;;;5054846;28;20024;-55
2023/11/16 00:49:15;;;;;;;10.90;7.65;;;26.10;99.90;;;;;;5054905;28;20055;-55
2023/11/16 00:51:41;;;;;;;10.90;7.50;;;26.00;99.90;;;;;;5055011;28;20013;-55
2023/11/16 00:54:07;;;;;;;9.45;7.65;;;26.00;99.90;;;;;;5054746;28;20029;-56
2023/11/16 00:56:32;;;;;;;11.68;7.78;;;26.00;99.90;;;;;;5054846;28;20017;-56
2023/11/16 00:58:58;;;;;;;11.13;7.70;;;26.00;99.90;;;;;;5054501;28;20481;-55
2023/11/16 01:01:26;;;;;;;11.30;8.02;;;26.00;99.90;;;;;;5057286;22;20058;-42
2023/11/16 01:03:53;;;;;;;11.68;7.38;;;25.90;99.90;;;;;;5034731;28;20025;-42
2023/11/16 01:06:19;;;;;;;9.50;6.97;;;25.90;99.90;;;;;;5033445;28;20021;-41
2023/11/16 01:08:45;;;;;;;11.40;7.43;;;25.90;99.90;;;;;;5034657;28;20108;-42
2023/11/16 01:11:15;;;;;;;11.00;7.43;;;25.90;99.90;;;;;;5034831;28;20478;-42
2023/11/16 01:13:42;;;;;;;10.75;7.55;;;25.90;99.90;;;;;;5034955;28;20025;-42
2023/11/16 01:16:17;;;;;;;9.65;6.97;;;25.90;99.90;;;;;;5033295;28;20029;-42
2023/11/16 01:18:50;;;;;;;12.32;7.75;;;25.90;99.90;;;;;;5034633;28;20510;-43
2023/11/16 01:21:19;;;;;;;9.98;7.32;;;25.90;99.90;;;;;;5034374;28;20048;-42
2023/11/16 01:23:47;;;;;;;10.90;7.82;;;25.90;99.90;;;;;;5034371;28;20531;-42
2023/11/16 01:26:14;;;;;;;8.73;6.72;;;25.80;99.90;;;;;;5034607;28;20026;-42
2023/11/16 01:28:45;;;;;;;9.25;7.13;;;25.80;99.90;;;;;;5034594;28;20022;-42
2023/11/16 01:31:15;;;;;;;9.52;7.10;;;25.80;99.90;;;;;;5034559;28;20057;-42
2023/11/16 01:33:42;;;;;;;10.00;7.20;;;25.80;99.90;;;;;;5000747;28;20494;-42
2023/11/16 01:36:09;;;;;;;9.98;6.80;;;25.80;99.90;;;;;;5034151;28;20101;-42
2023/11/16 01:38:38;;;;;;;10.07;6.70;;;25.80;99.90;;;;;;5016118;28;20130;-43
2023/11/16 01:41:08;;;;;;;9.00;6.68;;;25.80;99.90;;;;;;5016176;28;20030;-42
2023/11/16 01:43:35;;;;;;;9.75;6.85;;;25.80;99.90;;;;;;5033979;28;20026;-42
2023/11/16 01:46:05;;;;;;;9.20;6.65;;;25.80;99.90;;;;;;5016058;28;20363;-42
2023/11/16 01:48:58;;;;;;;10.02;6.72;;;25.80;99.90;;;;;;5033950;28;20025;-43
2023/11/16 01:51:27;;;;;;;10.63;7.20;;;25.70;99.90;;;;;;5030734;28;20045;-42
2023/11/16 01:53:56;;;;;;;9.07;6.78;;;25.70;99.90;;;;;;5033732;28;20509;-42
2023/11/16 01:56:23;;;;;;;10.35;7.35;;;25.70;99.90;;;;;;5033542;28;20581;-42
2023/11/16 01:58:51;;;;;;;9.18;6.85;;;25.70;99.90;;;;;;5033537;28;20037;-42
2023/11/16 02:01:18;;;;;;;8.43;6.70;;;25.70;99.90;;;;;;5034156;28;20049;-42
2023/11/16 02:03:46;;;;;;;9.52;6.72;;;25.70;99.90;;;;;;5033687;28;20493;-42
2023/11/16 02:06:12;;;;;;;9.05;6.50;;;25.70;99.90;;;;;;5033581;28;20025;-42
2023/11/16 02:08:39;;;;;;;9.25;6.97;;;25.60;99.90;;;;;;5033515;28;20038;-43
2023/11/16 02:11:05;;;;;;;9.35;6.53;;;25.60;99.90;;;;;;5033340;28;20021;-42
2023/11/16 02:13:31;;;;;;;11.07;6.70;;;25.60;99.90;;;;;;5033538;28;20025;-42
2023/11/16 02:15:57;;;;;;;8.90;6.65;;;25.60;99.90;;;;;;5033447;28;20553;-41
2023/11/16 02:18:24;;;;;;;7.88;6.47;;;25.60;99.90;;;;;;5033207;28;20104;-42
2023/11/16 02:20:53;;;;;;;9.65;6.90;;;25.60;99.90;;;;;;5033293;28;20045;-42
2023/11/16 02:23:19;;;;;;;8.55;6.38;;;25.60;99.90;;;;;;5033281;28;20100;-42
2023/11/16 02:25:45;;;;;;;9.63;6.32;;;25.60;99.90;;;;;;5033431;28;20049;-42
2023/11/16 02:28:11;;;;;;;9.15;6.65;;;25.60;99.90;;;;;;5033178;28;20355;-41
2023/11/16 02:30:38;;;;;;;8.80;6.22;;;25.50;99.90;;;;;;5033206;28;20052;-42
2023/11/16 02:33:04;;;;;;;9.57;6.75;;;25.50;99.90;;;;;;5032981;28;20032;-42
2023/11/16 02:35:31;;;;;;;9.05;6.10;;;25.50;99.90;;;;;;5032887;28;20382;-43
2023/11/16 02:37:57;;;;;;;9.27;6.82;;;25.50;99.90;;;;;;5032948;28;20053;-42
2023/11/16 02:40:24;;;;;;;8.48;6.28;;;25.50;99.90;;;;;;5015161;28;20041;-42
2023/11/16 02:42:52;;;;;;;16.05;6.95;;;25.50;99.90;;;;;;5026404;28;20346;-42
2023/11/16 02:45:24;;;;;;;9.15;6.32;;;25.50;99.90;;;;;;5052463;28;20493;-41
2023/11/16 02:47:53;;;;;;;8.98;5.95;;;25.40;99.90;;;;;;5052177;28;20025;-41
2023/11/16 02:50:21;;;;;;;8.50;6.13;;;25.40;99.90;;;;;;5052434;28;20017;-41
2023/11/16 02:52:47;;;;;;;8.38;5.90;;;25.40;99.90;;;;;;5052505;28;20378;-42
2023/11/16 02:55:12;;;;;;;9.20;5.47;;;25.40;99.90;;;;;;5050131;28;20612;-42
2023/11/16 02:57:41;;;;;;;10.43;5.78;;;25.40;99.90;;;;;;5051113;28;20111;-42
2023/11/16 03:02:37;;;;;;;9.20;5.85;;;25.40;99.90;;;;;;5011033;28;20054;-56
2023/11/16 03:05:04;;;;;;;8.68;5.95;;;25.40;99.90;;;;;;5009202;28;20019;-56
2023/11/16 03:07:30;;;;;;;7.75;5.22;;;25.40;99.90;;;;;;5011529;28;20171;-56
2023/11/16 03:09:56;;;;;;;7.57;5.45;;;25.40;99.90;;;;;;5009129;28;20533;-56
2023/11/16 03:12:21;;;;;;;8.93;5.43;;;25.40;99.90;;;;;;5010597;28;20450;-56
2023/11/16 03:14:47;;;;;;;7.28;5.28;;;25.30;99.90;;;;;;5010532;28;20022;-56
2023/11/16 03:17:13;;;;;;;9.93;5.53;;;25.30;99.90;;;;;;5010602;28;20014;-57
2023/11/16 03:19:42;;;;;;;9.70;5.05;;;25.30;99.90;;;;;;5010563;28;20393;-56
2023/11/16 03:22:08;;;;;;;8.52;5.63;;;25.30;99.90;;;;;;5010393;28;20088;-56
2023/11/16 03:24:34;;;;;;;9.38;6.28;;;25.30;99.90;;;;;;5011760;28;20029;-56
2023/11/16 03:26:59;;;;;;;8.45;6.07;;;25.30;99.90;;;;;;5012621;28;20029;-56
2023/11/16 03:29:25;;;;;;;8.10;5.38;;;25.30;99.90;;;;;;5012691;28;20036;-56
2023/11/16 03:31:51;;;;;;;7.30;5.40;;;25.30;99.90;;;;;;5012692;28;20072;-55
2023/11/16 03:34:17;;;;;;;9.98;5.60;;;25.30;99.90;;;;;;5012725;28;20030;-56
2023/11/16 03:36:43;;;;;;;8.27;5.05;;;25.20;99.90;;;;;;4994846;28;20489;-56
2023/11/16 03:39:12;;;;;;;9.02;6.38;;;25.20;99.90;;;;;;5012313;28;20029;-56
2023/11/16 03:41:38;;;;;;;6.97;5.53;;;25.20;99.90;;;;;;4994745;28;20113;-56
2023/11/16 03:44:05;;;;;;;9.10;6.07;;;25.20;99.90;;;;;;5012319;28;20101;-56
2023/11/16 03:46:31;;;;;;;6.45;5.13;;;25.20;99.90;;;;;;5012387;28;20034;-56
2023/11/16 03:48:57;;;;;;;10.48;5.82;;;25.20;99.90;;;;;;5012189;28;20363;-56
2023/11/16 03:51:23;;;;;;;7.25;5.55;;;25.20;99.90;;;;;;5012493;28;20026;-55
2023/11/16 03:53:48;;;;;;;8.50;5.18;;;25.10;99.90;;;;;;5012621;28;20434;-56
2023/11/16 03:56:14;;;;;;;8.10;5.53;;;25.10;99.90;;;;;;5012297;28;20026;-56
2023/11/16 03:58:40;;;;;;;7.97;5.55;;;25.10;99.90;;;;;;5012260;28;20032;-57
2023/11/16 04:01:06;;;;;;;7.55;4.93;;;25.10;99.90;;;;;;5012654;28;20050;-56
2023/11/16 04:03:33;;;;;;;7.00;4.90;;;25.10;99.90;;;;;;5012185;28;20033;-56
2023/11/16 04:05:59;;;;;;;;;;;25.10;99.90;;;;;;4995249;28;20462;-56
2023/11/16 04:08:26;;;;;;;7.60;5.40;;;25.10;99.90;;;;;;4994562;28;19913;-55
2023/11/16 04:10:51;;;;;;;6.88;5.07;;;25.00;99.90;;;;;;5012251;28;20025;-57
2023/11/16 04:13:20;;;;;;;6.63;4.88;;;25.00;99.90;;;;;;5012119;28;20478;-57
2023/11/16 04:15:47;;;;;;;6.13;4.82;;;25.00;99.90;;;;;;5012086;28;20037;-55
2023/11/16 04:18:12;;;;;;;8.57;5.00;;;25.00;99.90;;;;;;5014003;28;20018;-56
2023/11/16 04:20:38;;;;;;;6.07;5.07;;;25.00;99.90;;;;;;5015673;28;20045;-56
2023/11/16 04:23:05;;;;;;;6.30;4.68;;;25.00;99.90;;;;;;4998244;28;20022;-57
2023/11/16 04:25:33;;;;;;;9.27;5.82;;;25.00;99.90;;;;;;5015875;28;20134;-56
2023/11/16 04:27:59;;;;;;;9.10;4.88;;;25.00;99.90;;;;;;5015692;28;20026;-56
2023/11/16 04:30:31;;;;;;;6.93;4.13;;;25.00;99.90;;;;;;4998041;28;20022;-56
2023/11/16 04:33:00;;;;;;;6.88;4.28;;;25.00;99.90;;;;;;5015531;28;20421;-57
2023/11/16 04:35:26;;;;;;;6.70;4.65;;;24.90;99.90;;;;;;5015391;28;20022;-56
2023/11/16 04:37:55;;;;;;;7.60;4.25;;;24.90;99.90;;;;;;5015628;28;20084;-57
2023/11/16 04:40:22;;;;;;;5.43;4.45;;;24.90;99.90;;;;;;5015540;28;20040;-57
2023/11/16 04:42:49;;;;;;;5.35;4.32;;;24.90;99.90;;;;;;5015496;28;20045;-57
2023/11/16 04:45:15;;;;;;;8.60;4.68;;;24.90;99.90;;;;;;5015317;28;20433;-56
2023/11/16 04:47:44;;;;;;;6.50;4.20;;;24.90;99.90;;;;;;4997785;28;20018;-56
2023/11/16 04:50:13;;;;;;;6.55;4.28;;;24.90;99.90;;;;;;5015373;28;20026;-56
2023/11/16 04:52:45;;;;;;;6.60;4.75;;;24.90;99.90;;;;;;4997481;28;20022;-56
2023/11/16 04:55:11;;;;;;;5.97;4.28;;;24.80;99.90;;;;;;5015126;28;20034;-56
2023/11/16 04:57:37;;;;;;;6.20;4.47;;;24.80;99.90;;;;;;5015154;28;20029;-56
2023/11/16 05:00:10;;;;;;;9.73;3.75;;;24.80;99.90;;;;;;5014859;28;20544;-58
2023/11/16 05:02:36;;;;;;;5.47;3.63;;;24.80;99.90;;;;;;5015318;28;20049;-56
2023/11/16 05:05:03;;;;;;;4.82;3.70;;;24.80;99.90;;;;;;5015058;28;20053;-56
2023/11/16 05:07:29;;;;;;;5.35;4.15;;;24.80;99.90;;;;;;5014962;28;20030;-56
2023/11/16 05:09:58;;;;;;;5.25;4.22;;;24.80;99.90;;;;;;5015075;28;20054;-56
2023/11/16 05:12:24;;;;;;;5.40;4.25;;;24.80;99.90;;;;;;5014956;28;20021;-56
2023/11/16 05:14:51;;;;;;;6.05;3.83;;;24.80;99.90;;;;;;5014805;28;20116;-56
2023/11/16 05:17:19;;;;;;;6.28;3.55;;;24.80;99.90;;;;;;5014922;28;20451;-56
2023/11/16 05:19:45;;;;;;;5.05;3.83;;;24.70;99.90;;;;;;5014664;28;20095;-58
2023/11/16 05:22:11;;;;;;;5.70;3.92;;;24.70;99.90;;;;;;5014687;28;20026;-56
2023/11/16 05:24:36;;;;;;;4.82;3.75;;;24.70;99.90;;;;;;5014477;28;20026;-56
2023/11/16 05:27:02;;;;;;;6.43;4.30;;;24.70;99.90;;;;;;5014518;28;20026;-56
2023/11/16 05:29:29;;;;;;;6.82;3.80;;;24.70;99.90;;;;;;4996728;28;20153;-56
2023/11/16 05:31:56;;;;;;;5.20;3.75;;;24.70;99.90;;;;;;5014710;28;20163;-56
2023/11/16 05:34:22;;;;;;;4.68;3.35;;;24.70;99.90;;;;;;5014487;28;20022;-56
2023/11/16 05:36:48;;;;;;;7.63;3.28;;;24.70;99.90;;;;;;5014447;28;20045;-56
2023/11/16 05:39:16;;;;;;;5.85;3.63;;;24.70;99.90;;;;;;4996714;28;20530;-57
2023/11/16 05:41:42;;;;;;;;;;;24.70;99.90;;;;;;5014712;28;20100;-56
2023/11/16 05:44:07;;;;;;;6.55;3.30;;;24.70;99.90;;;;;;5014369;28;19909;-56
2023/11/16 05:46:33;;;;;;;7.78;3.22;;;24.70;99.90;;;;;;5014170;28;20018;-57
2023/11/16 05:48:59;;;;;;;6.80;3.30;;;24.70;99.90;;;;;;5014241;28;20018;-57
2023/11/16 05:51:25;;;;;;;6.72;3.25;;;24.60;99.90;;;;;;5014361;28;20466;-56
2023/11/16 05:53:51;;;;;;;5.25;3.33;;;24.60;99.90;;;;;;5014016;28;20354;-56
2023/11/16 05:56:16;;;;;;;6.82;3.67;;;24.60;99.90;;;;;;5013935;28;20030;-57
2023/11/16 05:58:42;;;;;;;4.68;3.22;;;24.60;99.90;;;;;;5013866;28;20025;-57
2023/11/16 06:01:13;;;;;;;5.80;3.72;;;24.60;99.90;;;;;;5012979;28;20046;-57
2023/11/16 06:03:39;;;;;;;6.03;3.17;;;24.60;99.90;;;;;;4996466;28;20057;-57
2023/11/16 06:06:05;;;;;;;5.93;3.47;;;24.60;99.90;;;;;;5014021;28;20026;-56
2023/11/16 06:08:31;;;;;;;6.15;3.40;;;24.60;99.90;;;;;;5013743;28;20026;-56
2023/11/16 06:10:57;;;;;;;6.75;3.92;;;24.50;99.90;;;;;;5013110;28;20040;-56
2023/11/16 06:13:23;;;;;;;4.90;3.33;;;24.50;99.90;;;;;;5013773;28;20022;-56
2023/11/16 06:15:49;;;;;;;3.88;2.95;;;24.50;99.90;;;;;;5013764;28;20497;-56
2023/11/16 06:18:16;;;;;;;5.15;3.10;;;24.50;99.90;;;;;;5013709;28;20022;-56
2023/11/16 06:20:43;;;;;;;7.03;3.60;;;24.50;99.90;;;;;;5013619;28;20064;-57
2023/11/16 06:23:09;;;;;;;8.60;3.53;;;24.60;99.90;;;;;;5013433;28;20021;-56
2023/11/16 06:25:34;;;;;;;6.97;3.13;;;24.50;99.90;;;;;;5013566;28;20038;-56
2023/11/16 06:28:00;;;;;;;5.28;2.80;;;24.50;99.90;;;;;;4996063;28;20028;-57
2023/11/16 06:30:26;;;;;;;6.25;3.20;;;24.50;99.90;;;;;;5013519;28;20429;-56
2023/11/16 06:32:52;;;;;;;7.53;2.85;;;24.50;99.90;;;;;;5013332;28;20033;-57
2023/11/16 06:35:17;;;;;;;4.35;2.72;;;24.50;99.90;;;;;;5013276;28;20050;-57
2023/11/16 06:37:43;;;;;;;5.55;3.35;;;24.50;99.90;;;;;;5013165;28;20104;-57
2023/11/16 06:40:09;;;;;;;4.80;3.13;;;24.50;99.90;;;;;;5012460;28;20493;-56
2023/11/16 06:42:36;;;;;;;5.75;3.28;;;24.50;99.90;;;;;;5013030;28;20018;-57
2023/11/16 06:45:06;;;;;;;8.97;3.00;;;24.50;99.90;;;;;;5013017;28;20057;-56
2023/11/16 06:47:32;;;;;;;4.75;3.28;;;24.50;99.90;;;;;;5013076;28;20029;-56
2023/11/16 06:49:58;;;;;;;6.18;2.47;;;24.40;99.90;;;;;;5013144;28;20037;-57
2023/11/16 06:52:26;;;;;;;4.25;2.72;;;24.50;99.90;;;;;;5012897;28;20018;-57
2023/11/16 06:54:53;;;;;;;5.90;3.08;;;24.40;99.90;;;;;;5012933;28;20528;-57
2023/11/16 06:57:22;;;;;;;5.40;2.65;;;24.40;99.90;;;;;;5012968;28;20115;-57
2023/11/16 06:59:53;;;;;;;6.57;3.50;;;24.50;99.90;;;;;;5012846;28;20490;-57
2023/11/16 07:02:22;;;;;;;6.03;3.08;;;24.40;99.90;;;;;;5012666;28;20097;-57
2023/11/16 07:04:49;;;;;;;5.03;2.97;;;24.40;99.90;;;;;;5012884;28;20053;-57
2023/11/16 07:07:18;;;;;;;5.95;3.22;;;24.40;99.90;;;;;;5012780;28;20497;-57
2023/11/16 07:09:45;;;;;;;4.50;3.22;;;24.40;99.90;;;;;;5012827;28;20041;-57
2023/11/16 07:12:12;;;;;;;3.30;2.38;;;24.40;99.90;;;;;;5012817;28;20025;-57
2023/11/16 07:14:37;;;;;;;3.90;2.45;;;24.40;99.90;;;;;;5012796;28;20028;-57
2023/11/16 07:17:03;;;;;;;5.43;3.20;;;24.40;99.90;;;;;;5012784;28;20029;-56
2023/11/16 07:19:29;;;;;;;13.18;3.50;;;24.40;99.90;;;;;;5012645;28;20109;-56
2023/11/16 07:21:55;;;;;;;4.40;3.10;;;24.40;99.90;;;;;;4994949;28;20046;-56
2023/11/16 07:24:22;;;;;;;6.30;2.88;;;24.40;99.90;;;;;;5012580;28;20032;-56
2023/11/16 07:26:48;;;;;;;5.50;3.25;;;24.40;99.90;;;;;;5012525;28;20026;-56
2023/11/16 07:29:17;;;;;;;5.72;2.92;;;24.40;99.90;;;;;;5012637;28;20022;-56
2023/11/16 07:31:43;;;;;;;4.97;3.15;;;24.40;99.90;;;;;;5012467;28;20075;-56
2023/11/16 07:34:09;;;;;;;5.72;3.03;;;24.40;99.90;;;;;;5012684;28;20382;-55
2023/11/16 07:36:36;;;;;;;6.90;3.60;;;24.40;99.90;;;;;;5012443;28;20022;-56
2023/11/16 07:39:02;;;;;;;5.17;3.13;;;24.40;99.90;;;;;;4994971;28;20053;-57
2023/11/16 07:41:28;;;;;;;6.03;2.90;;;24.50;99.90;;;;;;4994908;28;20026;-55
2023/11/16 07:43:54;;;;;;;6.28;3.55;;;24.50;99.90;;;;;;5012328;28;20026;-56
2023/11/16 07:46:20;;;;;;;4.97;3.08;;;24.50;99.90;;;;;;5012372;28;20029;-56
2023/11/16 07:48:46;;;;;;;6.78;2.97;;;24.50;99.90;;;;;;4978777;28;20087;-56
2023/11/16 07:51:12;;;;;;;8.35;3.17;;;24.50;99.90;;;;;;5012747;28;20104;-56
2023/11/16 07:53:47;;;;;;;7.50;3.35;;;24.60;99.90;;;;;;5016264;28;20033;-56
2023/11/16 07:56:17;;;;;;;4.07;2.40;;;24.60;99.90;;;;;;5016261;28;20030;-56
2023/11/16 07:58:49;;;;;;;6.20;3.15;;;24.60;99.90;;;;;;5016124;28;20382;-56
2023/11/16 08:01:21;;;;;;;5.88;2.88;;;24.70;99.90;;;;;;5015914;28;20057;-56
2023/11/16 08:03:55;;;;;;;4.38;2.42;;;24.70;99.90;;;;;;5016139;28;20040;-56
2023/11/16 08:06:23;;;;;;;5.80;3.03;;;24.70;99.90;;;;;;4999475;28;20450;-56
2023/11/16 08:08:49;;;;;;;6.85;3.53;;;24.80;99.90;;;;;;4998354;28;20466;-56
2023/11/16 08:11:16;;;;;;;4.38;2.90;;;24.80;99.90;;;;;;4998377;28;20057;-56
2023/11/16 08:13:47;;;;;;;5.93;3.13;;;24.80;99.90;;;;;;5015936;28;20041;-55
2023/11/16 08:16:15;;;;;;;6.00;2.67;;;24.90;99.90;;;;;;5015776;28;20105;-56
2023/11/16 08:18:42;;;;;;;5.18;2.83;;;24.90;99.90;;;;;;5015880;28;20032;-56
2023/11/16 08:21:11;;;;;;;8.23;3.63;;;24.90;99.90;;;;;;5015765;28;20026;-56
2023/11/16 08:23:39;;;;;;;3.70;2.50;;;25.00;99.90;;;;;;4998145;28;20034;-56
2023/11/16 08:26:12;;;;;;;4.93;2.92;;;25.00;99.90;;;;;;5015841;28;20125;-57
2023/11/16 08:28:43;;;;;;;4.40;2.75;;;25.00;99.90;;;;;;4998157;28;20018;-56
2023/11/16 08:31:12;;;;;;;5.38;2.90;;;25.00;99.90;;;;;;5015598;28;20026;-56
2023/11/16 08:33:42;;;;;;;6.97;3.58;;;25.00;99.90;;;;;;4998002;28;20390;-56
2023/11/16 08:36:10;;;;;;;5.03;3.38;;;25.10;99.90;;;;;;4997790;28;20121;-56
2023/11/16 08:38:45;;;;;;;7.10;3.35;;;25.10;99.90;;;;;;5015520;28;20388;-56
2023/11/16 08:41:18;;;;;;;5.35;2.75;;;25.10;99.90;;;;;;5015377;28;20021;-57
2023/11/16 08:43:50;;;;;;;4.47;2.85;;;25.10;99.90;;;;;;5015404;28;20044;-56
2023/11/16 08:46:24;;;;;;;5.85;2.75;;;25.00;99.90;;;;;;5015168;28;20029;-57
2023/11/16 08:48:50;;;;;;;7.68;3.03;;;25.10;99.90;;;;;;4997549;28;20026;-57
2023/11/16 08:51:16;;;;;;;4.28;2.58;;;25.10;99.90;;;;;;4997396;28;20037;-56
2023/11/16 08:53:44;;;;;;;5.63;3.17;;;25.10;99.90;;;;;;4997548;28;20029;-56
2023/11/16 08:56:11;;;;;;;6.03;2.75;;;25.10;99.90;;;;;;5015340;28;20398;-57
2023/11/16 08:58:39;;;;;;;5.97;3.55;;;25.10;99.90;;;;;;4997604;28;20022;-56
2023/11/16 09:01:06;;;;;;;5.32;2.92;;;25.10;99.90;;;;;;5015091;28;20046;-56
2023/11/16 09:03:33;;;;;;;5.70;3.03;;;25.10;99.90;;;;;;5014108;28;20373;-56
2023/11/16 09:06:06;;;;;;;;;;;25.10;99.90;;;;;;5015364;28;20028;-59
2023/11/16 09:08:37;;;;;;;5.45;2.70;;;25.10;99.90;;;;;;5014921;28;19915;-55
2023/11/16 09:11:03;;;;;;;5.78;3.00;;;25.10;99.90;;;;;;4997547;28;20026;-56
2023/11/16 09:13:30;;;;;;;6.00;2.90;;;25.10;99.90;;;;;;5014869;28;20340;-56
2023/11/16 09:15:56;;;;;;;3.63;2.42;;;25.10;99.90;;;;;;5014855;28;20102;-56
2023/11/16 09:18:25;;;;;;;5.43;2.90;;;25.10;99.90;;;;;;5014755;28;20104;-56
2023/11/16 09:20:51;;;;;;;4.85;2.83;;;25.10;99.90;;;;;;5014638;28;20026;-56
2023/11/16 09:23:17;;;;;;;5.53;3.10;;;25.10;99.90;;;;;;5014520;28;20377;-56
2023/11/16 09:25:45;;;;;;;7.15;3.45;;;25.10;99.90;;;;;;5014509;28;20021;-56
2023/11/16 09:28:11;;;;;;;5.53;2.95;;;25.20;99.90;;;;;;5014668;28;20032;-56
2023/11/16 09:30:43;;;;;;;5.72;2.65;;;25.20;99.90;;;;;;5014634;28;20033;-56
2023/11/16 09:33:09;;;;;;;5.80;2.88;;;25.30;99.90;;;;;;5014583;28;20489;-56
2023/11/16 09:35:40;;;;;;;3.95;2.63;;;25.30;99.90;;;;;;5014594;28;20079;-56
2023/11/16 09:38:10;;;;;;;4.80;2.60;;;25.40;99.90;;;;;;5014514;28;20110;-56
2023/11/16 09:40:38;;;;;;;5.50;3.05;;;25.40;99.90;;;;;;4997307;28;20034;-57
2023/11/16 09:43:16;;;;;;;4.63;3.35;;;25.50;99.90;;;;;;5014092;28;20497;-56
2023/11/16 09:45:50;;;;;;;3.80;2.65;;;25.50;99.90;;;;;;5013967;28;20169;-56
2023/11/16 09:48:20;;;;;;;4.97;2.50;;;25.50;99.90;;;;;;4996953;28;20050;-56
2023/11/16 09:50:53;;;;;;;2.88;2.35;;;25.60;99.90;;;;;;4996508;28;20033;-56
2023/11/16 09:53:27;;;;;;;4.63;2.65;;;25.60;99.90;;;;;;5014165;28;20370;-56
2023/11/16 09:55:58;;;;;;;6.50;3.05;;;25.60;99.90;;;;;;5014101;28;20470;-56
2023/11/16 09:58:28;;;;;;;6.28;2.83;;;25.60;99.90;;;;;;5013998;28;20040;-56
2023/11/16 10:00:56;;;;;;;4.25;2.75;;;25.60;99.90;;;;;;4995746;28;20054;-56
2023/11/16 10:03:26;;;;;;;5.32;2.40;;;25.60;99.90;;;;;;5013883;28;20413;-57
2023/11/16 10:05:55;;;;;;;5.60;2.40;;;25.60;99.90;;;;;;5013730;28;20040;-56
2023/11/16 10:08:23;;;;;;;5.00;2.53;;;25.70;99.90;;;;;;4996070;28;20030;-57
2023/11/16 10:10:52;;;;;;;6.60;3.28;;;25.60;99.90;;;;;;5013715;28;20021;-56
2023/11/16 10:13:18;;;;;;;7.22;2.92;;;25.70;99.90;;;;;;4996046;28;20453;-56
2023/11/16 10:15:47;;;;;;;7.43;3.25;;;25.70;99.90;;;;;;5013634;28;20026;-56
2023/11/16 10:18:14;;;;;;;7.28;2.90;;;25.70;99.90;;;;;;5013669;28;20033;-56
2023/11/16 10:20:42;;;;;;;5.38;2.83;;;25.70;99.90;;;;;;5013392;28;20034;-56
2023/11/16 10:23:10;;;;;;;5.25;2.40;;;25.70;99.90;;;;;;5013467;28;20064;-55
2023/11/16 10:25:37;;;;;;;4.57;2.75;;;25.70;99.90;;;;;;5013671;28;20022;-56
2023/11/16 10:28:17;;;;;;;5.38;3.08;;;25.80;99.90;;;;;;5013422;28;20552;-56
2023/11/16 10:30:46;;;;;;;3.13;2.67;;;25.80;99.90;;;;;;4995821;28;20383;-56
2023/11/16 10:33:16;;;;;;;4.47;2.40;;;25.80;99.90;;;;;;5013155;28;20083;-56
2023/11/16 10:35:46;;;;;;;5.25;2.92;;;25.90;99.90;;;;;;5013246;28;20494;-56
2023/11/16 10:38:15;;;;;;;4.40;2.45;;;25.90;99.90;;;;;;5013085;28;20114;-56
2023/11/16 10:40:42;;;;;;;3.55;2.58;;;26.00;99.90;;;;;;4995613;28;20539;-56
2023/11/16 10:43:09;;;;;;;;;;;26.00;99.90;;;;;;5013516;28;20025;-56
2023/11/16 10:45:35;;;;;;;5.03;3.08;;;26.10;99.90;;;;;;5012983;28;20069;-56
2023/11/16 10:48:04;;;;;;;6.13;2.92;;;26.10;99.90;;;;;;5013024;28;20046;-56
2023/11/16 10:50:30;;;;;;;5.80;2.33;;;26.10;99.90;;;;;;4995486;28;20136;-55
2023/11/16 10:52:57;;;;;;;6.05;2.90;;;26.20;99.90;;;;;;5012999;28;20101;-56
2023/11/16 10:55:26;;;;;;;6.45;3.05;;;26.30;99.90;;;;;;5013083;28;20073;-56
2023/11/16 10:58:04;;;;;;;3.05;2.35;;;26.30;99.90;;;;;;5013066;28;20033;-56
2023/11/16 11:00:34;;;;;;;6.70;2.97;;;26.30;99.90;;;;;;5012783;28;20030;-56
2023/11/16 11:03:01;;;;;;;5.28;2.90;;;26.40;99.90;;;;;;5013293;28;20029;-56
2023/11/16 11:05:30;;;;;;;7.60;2.78;;;26.40;99.90;;;;;;5012866;28;20117;-56
2023/11/16 11:07:57;;;;;;;4.10;2.42;;;26.50;99.90;;;;;;4995181;28;20030;-56
2023/11/16 11:10:27;;;;;;;4.57;2.67;;;26.50;99.90;;;;;;5012722;28;20037;-56
2023/11/16 11:12:54;;;;;;;5.43;3.38;;;26.60;99.90;;;;;;5012647;28;20611;-56
2023/11/16 11:15:39;;;;;;;5.82;2.60;;;26.60;99.90;;;;;;5012634;28;20025;-55
2023/11/16 11:18:06;;;;;;;4.25;2.75;;;26.60;99.90;;;;;;5012489;28;20482;-55
2023/11/16 11:20:43;;;;;;;4.07;2.67;;;26.70;99.90;;;;;;4995427;28;20107;-56
2023/11/16 11:23:15;;;;;;;4.70;2.58;;;26.70;99.90;;;;;;5012479;28;20033;-56
2023/11/16 11:25:42;;;;;;;4.82;2.38;;;26.70;99.90;;;;;;5024549;28;20222;-56
2023/11/16 11:28:16;;;;;;;4.72;2.20;;;26.70;99.90;;;;;;5032206;28;20371;-56
2023/11/16 11:30:48;;;;;;;9.20;2.78;;;26.80;99.90;;;;;;5032164;28;20112;-57
2023/11/16 11:33:24;;;;;;;5.97;2.72;;;26.80;99.90;;;;;;5032213;28;20076;-57
2023/11/16 11:35:53;;;;;;;5.53;2.83;;;26.80;99.90;;;;;;5015698;28;20413;-57
2023/11/16 11:38:26;;;;;;;3.92;2.63;;;26.80;99.90;;;;;;5032048;28;20029;-56
2023/11/16 11:40:56;;;;;;;7.43;2.63;;;26.80;99.90;;;;;;5031945;28;20030;-56
2023/11/16 11:43:26;;;;;;;8.55;2.60;;;26.80;99.90;;;;;;5032230;28;20033;-57
2023/11/16 11:45:55;;;;;;;5.05;2.75;;;26.80;99.90;;;;;;5025758;28;20625;-60
2023/11/16 11:48:23;;;;;;;7.13;2.90;;;26.80;99.90;;;;;;5011744;28;20018;-59
2023/11/16 11:50:57;;;;;;;6.45;2.45;;;26.80;99.90;;;;;;5012120;28;20046;-57
2023/11/16 11:53:27;;;;;;;7.45;3.38;;;26.80;99.90;;;;;;5012378;28;20022;-57
2023/11/16 11:55:57;;;;;;;4.47;2.55;;;26.80;99.90;;;;;;5011137;28;20033;-58
2023/11/16 11:58:24;;;;;;;6.13;2.72;;;26.80;99.90;;;;;;5011306;28;20809;-57
2023/11/16 12:00:51;;;;;;;4.50;2.20;;;26.80;99.90;;;;;;5011448;28;20042;-57
2023/11/16 12:03:21;;;;;;;3.65;1.95;;;26.80;99.90;;;;;;5011318;28;20538;-57
2023/11/16 12:05:59;;;;;;;6.32;2.65;;;26.80;99.90;;;;;;5011616;28;20018;-57
2023/11/16 12:08:48;;;;;;;5.47;2.55;;;26.80;99.90;;;;;;5009529;28;20137;-58
2023/11/16 12:11:18;;;;;;;3.08;2.03;;;26.80;99.90;;;;;;5010564;28;20379;-59
2023/11/16 12:13:44;;;;;;;3.13;1.90;;;26.80;99.90;;;;;;5012149;28;20096;-56
2023/11/16 12:16:12;;;;;;;3.33;2.40;;;26.80;99.90;;;;;;5011791;28;20022;-57
2023/11/16 12:18:44;;;;;;;5.28;2.80;;;26.80;99.90;;;;;;5011576;28;20107;-54
2023/11/16 12:21:17;;;;;;;8.25;3.72;;;26.80;99.90;;;;;;5011901;28;20038;-56
2023/11/16 12:23:48;;;;;;;6.40;3.90;;;26.80;99.90;;;;;;4994412;28;20064;-55
2023/11/16 12:26:29;;;;;;;6.38;3.33;;;26.70;99.90;;;;;;5012138;28;20113;-56
2023/11/16 12:28:55;;;;;;;8.90;3.75;;;26.80;99.90;;;;;;5011997;28;20030;-55
2023/11/16 12:31:22;;;;;;;5.63;3.75;;;26.80;99.90;;;;;;5010910;28;20491;-55
2023/11/16 12:33:49;;;;;;;6.03;3.75;;;26.70;99.90;;;;;;5011856;28;20113;-55
2023/11/16 12:36:22;;;;;;;5.32;3.70;;;26.70;99.90;;;;;;5011890;28;20486;-55
2023/11/16 12:38:48;;;;;;;6.07;3.38;;;26.70;99.90;;;;;;5006891;28;20428;-52
2023/11/16 12:41:18;;;;;;;6.07;3.50;;;26.70;99.90;;;;;;5012782;28;20029;-53
2023/11/16 12:43:45;;;;;;;4.70;4.20;;;26.70;99.90;;;;;;5008664;28;20279;-56
2023/11/16 12:46:11;;;;;;;7.30;3.97;;;26.70;99.90;;;;;;5012010;28;20033;-55
2023/11/16 12:48:38;;;;;;;7.20;3.22;;;26.70;99.90;;;;;;4995459;28;20037;-56
2023/11/16 12:51:06;;;;;;;6.60;3.77;;;26.70;99.90;;;;;;5013369;28;20022;-55